createdAt,value
2022-08-17T00:02:25.197Z,69.93
2022-08-17T00:04:54.163Z,70.13
2022-08-17T00:07:20.741Z,70.11
2022-08-17T00:09:47.298Z,70.22
2022-08-17T00:12:42.177Z,69.90
2022-08-17T00:15:01.104Z,70.28
2022-08-17T00:17:27.959Z,70.15
2022-08-17T00:19:54.530Z,69.92
2022-08-17T00:22:31.566Z,69.98
2022-08-17T00:25:05.353Z,70.54
2022-08-17T00:27:31.922Z,70.36
2022-08-17T00:29:58.590Z,70.65
2022-08-17T00:33:12.122Z,70.56
2022-08-17T00:35:17.613Z,70.93
2022-08-17T00:37:44.470Z,70.81
2022-08-17T00:40:13.915Z,70.83
2022-08-17T00:42:41.713Z,71.29
2022-08-17T00:45:13.865Z,70.95
2022-08-17T00:47:40.525Z,71.51
2022-08-17T00:50:10.475Z,71.19
2022-08-17T00:52:42.568Z,71.33
2022-08-17T00:55:10.780Z,71.17
2022-08-17T00:57:42.706Z,71.42
2022-08-17T01:00:16.021Z,71.41
2022-08-17T01:02:48.697Z,71.40
2022-08-17T01:05:23.739Z,71.49
2022-08-17T01:07:53.032Z,71.16
2022-08-17T01:10:57.486Z,71.31
2022-08-17T01:13:11.242Z,71.34
2022-08-17T01:15:46.425Z,71.16
2022-08-17T01:18:13.940Z,71.17
2022-08-17T01:20:48.493Z,71.54
2022-08-17T01:23:20.499Z,71.66
2022-08-17T01:25:54.208Z,71.42
2022-08-17T01:28:33.545Z,71.96
2022-08-17T01:31:12.570Z,72.03
2022-08-17T01:33:39.146Z,71.76
2022-08-17T01:36:07.622Z,72.22
2022-08-17T01:38:38.655Z,71.94
2022-08-17T01:41:12.405Z,72.21
2022-08-17T01:43:50.987Z,72.10
2022-08-17T01:46:24.316Z,72.17
2022-08-17T01:48:51.556Z,71.83
2022-08-17T01:51:19.995Z,71.85
2022-08-17T01:53:53.191Z,72.19
2022-08-17T01:56:23.322Z,71.65
2022-08-17T01:58:50.497Z,71.74
2022-08-17T02:01:20.638Z,72.07
2022-08-17T02:03:59.123Z,72.11
2022-08-17T02:06:44.974Z,72.07
2022-08-17T02:09:16.498Z,71.88
2022-08-17T02:11:44.287Z,71.94
2022-08-17T02:14:12.285Z,72.34
2022-08-17T02:16:41.029Z,72.61
2022-08-17T02:19:11.795Z,72.71
2022-08-17T02:21:39.540Z,72.50
2022-08-17T02:24:10.926Z,72.79
2022-08-17T02:26:39.914Z,72.74
2022-08-17T02:29:08.604Z,73.03
2022-08-17T02:31:35.578Z,72.95
2022-08-17T02:34:04.093Z,72.85
2022-08-17T02:36:35.371Z,72.84
2022-08-17T02:39:08.133Z,72.94
2022-08-17T02:41:38.123Z,73.34
2022-08-17T02:44:05.960Z,73.29
2022-08-17T02:46:32.642Z,73.48
2022-08-17T02:48:59.856Z,73.70
2022-08-17T02:51:27.114Z,73.77
2022-08-17T02:53:53.628Z,73.86
2022-08-17T02:56:40.144Z,74.18
2022-08-17T02:59:08.977Z,74.68
2022-08-17T03:01:35.584Z,74.08
2022-08-17T03:04:02.212Z,74.58
2022-08-17T03:06:29.167Z,74.69
2022-08-17T03:08:56.469Z,74.98
2022-08-17T03:11:23.562Z,74.86
2022-08-17T03:13:50.237Z,74.95
2022-08-17T03:16:16.860Z,74.61
2022-08-17T03:18:43.467Z,74.98
2022-08-17T03:21:10.009Z,74.66
2022-08-17T03:23:41.242Z,74.97
2022-08-17T03:26:12.296Z,75.07
2022-08-17T03:28:42.342Z,75.20
2022-08-17T03:31:08.877Z,75.34
2022-08-17T03:33:35.529Z,75.42
2022-08-17T03:36:02.058Z,75.17
2022-08-17T03:38:28.581Z,75.46
2022-08-17T03:40:59.491Z,75.59
2022-08-17T03:43:33.455Z,75.60
2022-08-17T03:46:34.333Z,75.72
2022-08-17T03:49:25.692Z,75.22
2022-08-17T03:52:14.697Z,75.48
2022-08-17T03:55:01.707Z,75.20
2022-08-17T03:57:29.112Z,74.97
2022-08-17T03:59:56.408Z,75.40
2022-08-17T04:02:30.068Z,74.93
2022-08-17T04:04:57.352Z,75.19
2022-08-17T04:07:27.567Z,75.15
2022-08-17T04:09:54.643Z,75.63
2022-08-17T04:12:30.648Z,75.55
2022-08-17T04:14:57.412Z,75.65
2022-08-17T04:17:26.354Z,75.63
2022-08-17T04:19:56.096Z,75.67
2022-08-17T04:22:30.666Z,75.78
2022-08-17T04:25:02.513Z,75.57
2022-08-17T04:27:29.079Z,75.84
2022-08-17T04:29:56.210Z,75.84
2022-08-17T04:33:05.526Z,75.57
2022-08-17T04:35:10.006Z,75.89
2022-08-17T04:37:36.564Z,75.94
2022-08-17T04:40:22.601Z,76.14
2022-08-17T04:43:18.670Z,75.87
2022-08-17T04:46:01.802Z,76.05
2022-08-17T04:48:39.626Z,75.59
2022-08-17T04:51:21.705Z,75.54
2022-08-17T04:53:54.111Z,75.79
2022-08-17T04:56:22.759Z,75.97
2022-08-17T04:58:50.889Z,75.75
2022-08-17T05:01:23.173Z,76.10
2022-08-17T05:03:50.204Z,75.42
2022-08-17T05:06:19.271Z,75.00
2022-08-17T05:08:45.826Z,75.07
2022-08-17T05:11:12.371Z,75.12
2022-08-17T05:13:38.959Z,75.09
2022-08-17T05:16:06.751Z,74.99
2022-08-17T05:18:37.273Z,75.43
2022-08-17T05:21:04.495Z,74.82
2022-08-17T05:23:42.070Z,74.88
2022-08-17T05:26:22.008Z,74.82
2022-08-17T05:28:52.632Z,74.65
2022-08-17T05:31:21.027Z,74.30
2022-08-17T05:33:49.578Z,74.70
2022-08-17T05:36:41.962Z,74.56
2022-08-17T05:39:06.622Z,74.33
2022-08-17T05:41:33.159Z,73.92
2022-08-17T05:43:59.811Z,74.13
2022-08-17T05:46:41.998Z,74.02
2022-08-17T05:49:09.563Z,73.89
2022-08-17T05:52:00.983Z,73.48
2022-08-17T05:54:33.458Z,73.14
2022-08-17T05:57:21.629Z,72.59
2022-08-17T06:02:50.763Z,69.55
2022-08-17T06:05:54.213Z,68.86
2022-08-17T06:08:34.062Z,66.83
2022-08-17T06:11:22.872Z,63.71
2022-08-17T06:14:15.032Z,61.35
2022-08-17T06:16:50.968Z,60.51
2022-08-17T06:19:40.775Z,60.83
2022-08-17T06:22:12.096Z,60.84
2022-08-17T06:24:48.465Z,60.86
2022-08-17T06:27:53.620Z,61.36
2022-08-17T06:30:26.363Z,62.09
2022-08-17T06:32:55.875Z,63.29
2022-08-17T06:35:34.131Z,65.27
2022-08-17T06:38:37.862Z,66.58
2022-08-17T06:41:31.793Z,67.72
2022-08-17T06:44:47.576Z,68.59
2022-08-17T06:47:28.609Z,69.16
2022-08-17T06:50:18.427Z,69.91
2022-08-17T06:52:57.607Z,70.41
2022-08-17T06:55:37.874Z,70.72
2022-08-17T06:58:16.235Z,70.84
2022-08-17T07:00:47.119Z,71.02
2022-08-17T07:03:49.835Z,71.54
2022-08-17T07:06:20.942Z,71.44
2022-08-17T07:11:23.617Z,72.12
2022-08-17T07:14:16.966Z,72.03
2022-08-17T07:16:50.758Z,72.09
2022-08-17T07:19:22.480Z,71.79
2022-08-17T07:22:01.130Z,71.85
2022-08-17T07:24:41.507Z,72.13
2022-08-17T07:27:16.146Z,72.20
2022-08-17T07:29:47.831Z,72.54
2022-08-17T07:32:18.607Z,72.23
2022-08-17T07:35:16.137Z,71.93
2022-08-17T07:37:53.071Z,71.78
2022-08-17T07:40:24.733Z,71.62
2022-08-17T07:43:26.353Z,71.42
2022-08-17T07:46:29.940Z,71.47
2022-08-17T07:49:03.687Z,71.66
2022-08-17T07:51:55.598Z,71.60
2022-08-17T07:54:36.877Z,71.68
2022-08-17T07:57:12.892Z,71.86
2022-08-17T08:00:01.302Z,71.77
2022-08-17T08:02:40.254Z,72.17
2022-08-17T08:05:46.619Z,72.03
2022-08-17T08:08:42.809Z,71.56
2022-08-17T08:11:12.580Z,71.32
2022-08-17T08:13:43.854Z,71.25
2022-08-17T08:16:13.739Z,70.61
2022-08-17T08:18:55.338Z,70.59
2022-08-17T08:21:52.931Z,69.87
2022-08-17T08:24:41.066Z,69.61
2022-08-17T08:27:32.771Z,69.26
2022-08-17T08:30:14.410Z,68.61
2022-08-17T08:32:54.107Z,67.94
2022-08-17T08:35:26.629Z,68.56
2022-08-17T08:38:24.819Z,67.60
2022-08-17T08:40:54.825Z,66.97
2022-08-17T08:43:43.432Z,66.63
2022-08-17T08:46:30.968Z,66.12
2022-08-17T08:49:14.466Z,66.13
2022-08-17T08:52:04.940Z,65.99
2022-08-17T08:54:40.722Z,65.75
2022-08-17T08:57:33.030Z,65.47
2022-08-17T09:00:15.611Z,65.46
2022-08-17T09:03:04.110Z,65.82
2022-08-17T09:06:03.817Z,66.07
2022-08-17T09:08:55.561Z,66.40
2022-08-17T09:12:01.266Z,66.84
2022-08-17T09:14:45.133Z,66.82
2022-08-17T09:17:21.697Z,67.01
2022-08-17T09:19:48.162Z,66.29
2022-08-17T09:22:36.315Z,65.84
2022-08-17T09:25:12.162Z,64.99
2022-08-17T09:28:01.291Z,64.52
2022-08-17T09:30:41.226Z,64.49
2022-08-17T09:33:12.872Z,64.22
2022-08-17T09:35:48.158Z,63.86
2022-08-17T09:38:52.320Z,64.35
2022-08-17T09:41:28.406Z,64.50
2022-08-17T09:44:01.059Z,65.09
2022-08-17T09:46:38.761Z,65.09
2022-08-17T09:49:31.517Z,65.62
2022-08-17T09:52:16.352Z,65.76
2022-08-17T09:54:45.737Z,65.76
2022-08-17T09:57:31.603Z,65.94
2022-08-17T10:00:16.053Z,65.91
2022-08-17T10:02:57.925Z,66.34
2022-08-17T10:05:59.932Z,67.23
2022-08-17T10:08:52.582Z,67.19
2022-08-17T10:11:44.873Z,67.44
2022-08-17T10:14:36.514Z,67.34
2022-08-17T10:17:15.980Z,68.50
2022-08-17T10:20:13.768Z,68.83
2022-08-17T10:23:05.428Z,69.54
2022-08-17T10:25:55.856Z,69.66
2022-08-17T10:28:30.209Z,70.15
2022-08-17T10:31:33.165Z,70.82
2022-08-17T10:34:23.736Z,70.79
2022-08-17T10:37:14.816Z,71.39
2022-08-17T10:40:19.025Z,71.47
2022-08-17T10:42:51.667Z,72.23
2022-08-17T10:45:29.518Z,72.68
2022-08-17T10:48:07.455Z,72.64
2022-08-17T10:50:58.610Z,73.30
2022-08-17T10:53:43.555Z,73.44
2022-08-17T10:56:16.271Z,74.05
2022-08-17T10:58:50.387Z,74.46
2022-08-17T11:01:21.196Z,75.02
2022-08-17T11:03:57.751Z,75.50
2022-08-17T11:06:42.009Z,75.06
2022-08-17T11:09:52.126Z,74.91
2022-08-17T11:12:49.044Z,75.12
2022-08-17T11:15:24.677Z,75.74
2022-08-17T11:18:21.158Z,75.29
2022-08-17T11:20:56.883Z,76.06
2022-08-17T11:23:48.436Z,76.04
2022-08-17T11:26:29.388Z,76.37
2022-08-17T11:29:02.185Z,76.44
2022-08-17T11:31:39.309Z,76.16
2022-08-17T11:34:18.706Z,76.55
2022-08-17T11:36:51.831Z,76.76
2022-08-17T11:39:34.022Z,77.14
2022-08-17T11:42:05.978Z,76.80
2022-08-17T11:44:50.751Z,76.97
2022-08-17T11:48:16.017Z,76.85
2022-08-17T11:51:05.123Z,76.75
2022-08-17T11:53:37.623Z,76.79
2022-08-17T11:56:09.562Z,77.40
2022-08-17T11:58:45.034Z,77.56
2022-08-17T12:01:41.896Z,77.79
2022-08-17T12:04:22.750Z,77.40
2022-08-17T12:06:54.581Z,77.29
2022-08-17T12:09:25.023Z,77.44
2022-08-17T12:12:13.320Z,77.81
2022-08-17T12:17:40.863Z,77.68
2022-08-17T12:20:15.677Z,77.73
2022-08-17T12:23:00.904Z,77.89
2022-08-17T12:25:45.931Z,77.25
2022-08-17T12:28:25.857Z,77.53
2022-08-17T12:30:53.011Z,77.62
2022-08-17T12:33:24.504Z,77.73
2022-08-17T12:36:03.067Z,77.66
2022-08-17T12:38:34.690Z,77.94
2022-08-17T12:41:25.291Z,78.27
2022-08-17T12:44:02.261Z,78.06
2022-08-17T12:46:42.945Z,78.43
2022-08-17T12:49:22.642Z,78.47
2022-08-17T12:51:51.324Z,77.80
2022-08-17T12:54:59.803Z,78.15
2022-08-17T12:57:35.153Z,78.11
2022-08-17T13:00:21.015Z,78.69
2022-08-17T13:02:51.747Z,78.32
2022-08-17T13:05:39.353Z,78.53
2022-08-17T13:08:24.552Z,78.14
2022-08-17T13:11:06.410Z,78.39
2022-08-17T13:13:36.389Z,78.25
2022-08-17T13:16:10.305Z,77.86
2022-08-17T13:18:39.196Z,78.48
2022-08-17T13:21:23.797Z,78.36
2022-08-17T13:24:03.622Z,78.82
2022-08-17T13:26:35.510Z,78.36
2022-08-17T13:29:06.029Z,79.11
2022-08-17T13:31:51.165Z,79.12
2022-08-17T13:34:33.328Z,78.77
2022-08-17T13:37:18.795Z,79.10
2022-08-17T13:39:48.410Z,78.96
2022-08-17T13:42:33.815Z,78.98
2022-08-17T13:45:35.307Z,78.43
2022-08-17T13:48:10.894Z,78.60
2022-08-17T13:51:03.963Z,80.50
2022-08-17T13:53:47.569Z,80.63
2022-08-17T13:56:38.386Z,80.62
2022-08-17T13:59:53.380Z,80.24
2022-08-17T14:02:12.382Z,81.06
2022-08-17T14:04:43.982Z,81.55
2022-08-17T14:07:13.277Z,81.39
2022-08-17T14:09:48.942Z,81.59
2022-08-17T14:12:18.089Z,81.26
2022-08-17T14:14:49.627Z,81.64
2022-08-17T14:17:18.541Z,81.55
2022-08-17T14:19:45.583Z,81.85
2022-08-17T14:22:24.298Z,82.80
2022-08-17T14:24:53.458Z,82.88
2022-08-17T14:27:21.367Z,82.92
2022-08-17T14:29:54.458Z,82.33
2022-08-17T14:32:28.227Z,83.15
2022-08-17T14:34:58.532Z,82.63
2022-08-17T14:37:28.641Z,82.60
2022-08-17T14:40:06.883Z,82.80
2022-08-17T14:42:42.480Z,84.53
2022-08-17T14:45:29.862Z,83.48
2022-08-17T14:48:11.680Z,83.62
2022-08-17T14:50:43.342Z,83.05
2022-08-17T14:53:13.844Z,83.32
2022-08-17T14:55:47.129Z,83.00
2022-08-17T14:58:16.762Z,82.25
2022-08-17T15:00:46.208Z,82.42
2022-08-17T15:03:16.638Z,80.50
2022-08-17T15:06:05.775Z,81.30
2022-08-17T15:08:32.697Z,80.54
2022-08-17T15:11:02.013Z,81.12
2022-08-17T15:13:31.711Z,81.32
2022-08-17T15:16:00.400Z,81.07
2022-08-17T15:18:29.294Z,81.19
2022-08-17T15:20:57.262Z,80.58
2022-08-17T15:23:26.449Z,80.78
2022-08-17T15:25:54.611Z,80.72
2022-08-17T15:28:25.087Z,80.54
2022-08-17T15:30:52.894Z,80.59
2022-08-17T15:33:24.044Z,80.67
2022-08-17T15:35:52.037Z,80.46
2022-08-17T15:38:18.590Z,80.15
2022-08-17T15:40:47.649Z,80.42
2022-08-17T15:43:28.218Z,80.25
2022-08-17T15:46:04.488Z,80.19
2022-08-17T15:48:42.673Z,79.99
2022-08-17T15:51:38.445Z,79.51
2022-08-17T15:54:18.735Z,79.19
2022-08-17T15:57:00.163Z,79.15
2022-08-17T15:59:52.059Z,78.99
2022-08-17T16:03:46.051Z,78.79
2022-08-17T16:05:25.299Z,78.76
2022-08-17T16:07:55.862Z,78.76
2022-08-17T16:10:34.886Z,78.67
2022-08-17T16:13:04.225Z,78.73
2022-08-17T16:15:33.037Z,79.07
2022-08-17T16:18:00.791Z,78.72
2022-08-17T16:20:27.633Z,79.09
2022-08-17T16:22:54.970Z,79.05
2022-08-17T16:25:51.951Z,79.36
2022-08-17T16:28:15.148Z,79.42
2022-08-17T16:30:42.101Z,79.35
2022-08-17T16:33:11.399Z,79.54
2022-08-17T16:35:41.943Z,79.55
2022-08-17T16:38:09.511Z,79.42
2022-08-17T16:40:36.453Z,79.84
2022-08-17T16:43:04.280Z,80.36
2022-08-17T16:45:36.360Z,80.67
2022-08-17T16:48:03.265Z,80.38
2022-08-17T16:50:30.142Z,80.72
2022-08-17T16:53:16.240Z,80.62
2022-08-17T16:55:44.030Z,80.51
2022-08-17T16:58:10.990Z,81.04
2022-08-17T17:00:42.329Z,81.13
2022-08-17T17:03:20.171Z,80.70
2022-08-17T17:05:58.050Z,80.88
2022-08-17T17:08:30.397Z,81.09
2022-08-17T17:11:10.282Z,81.09
2022-08-17T17:13:49.569Z,80.93
2022-08-17T17:16:53.289Z,81.28
2022-08-17T17:19:42.948Z,80.85
2022-08-17T17:22:26.170Z,81.20
2022-08-17T17:25:15.996Z,81.28
2022-08-17T17:28:07.897Z,81.10
2022-08-17T17:30:58.185Z,81.41
2022-08-17T17:33:52.496Z,81.21
2022-08-17T17:36:31.991Z,81.39
2022-08-17T17:39:05.795Z,81.96
2022-08-17T17:41:47.182Z,81.71
2022-08-17T17:44:20.303Z,81.69
2022-08-17T17:46:58.813Z,82.00
2022-08-17T17:49:38.202Z,82.41
2022-08-17T17:52:36.596Z,82.30
2022-08-17T17:55:17.504Z,82.78
2022-08-17T17:58:06.235Z,82.86
2022-08-17T18:01:01.944Z,82.88
2022-08-17T18:03:59.947Z,83.08
2022-08-17T18:06:42.406Z,83.03
2022-08-17T18:09:34.799Z,83.30
2022-08-17T18:12:12.185Z,83.11
2022-08-17T18:15:08.342Z,82.93
2022-08-17T18:17:37.809Z,83.35
2022-08-17T18:20:08.434Z,83.90
2022-08-17T18:22:40.444Z,84.04
2022-08-17T18:25:45.323Z,83.87
2022-08-17T18:28:36.973Z,84.27
2022-08-17T18:31:21.125Z,84.54
2022-08-17T18:33:51.535Z,84.84
2022-08-17T18:36:29.573Z,84.80
2022-08-17T18:39:21.162Z,85.26
2022-08-17T18:41:54.009Z,85.41
2022-08-17T18:44:35.615Z,85.44
2022-08-17T18:47:06.084Z,86.07
2022-08-17T18:49:35.178Z,85.82
2022-08-17T18:52:26.023Z,85.79
2022-08-17T18:55:08.980Z,86.16
2022-08-17T18:57:48.958Z,86.35
2022-08-17T19:00:30.602Z,86.50
2022-08-17T19:03:01.825Z,86.81
2022-08-17T19:05:28.377Z,87.04
2022-08-17T19:08:13.602Z,87.25
2022-08-17T19:10:46.084Z,87.61
2022-08-17T19:13:36.826Z,88.00
2022-08-17T19:16:24.982Z,87.90
2022-08-17T19:19:14.740Z,87.40
2022-08-17T19:21:48.043Z,87.67
2022-08-17T19:24:26.513Z,87.36
2022-08-17T19:27:00.965Z,87.16
2022-08-17T19:29:46.242Z,87.04
2022-08-17T19:32:16.419Z,87.46
2022-08-17T19:34:44.469Z,87.53
2022-08-17T19:37:20.782Z,87.21
2022-08-17T19:40:00.786Z,87.51
2022-08-17T19:42:33.967Z,87.54
2022-08-17T19:45:00.523Z,87.75
2022-08-17T19:47:55.381Z,87.20
2022-08-17T19:50:38.279Z,87.42
2022-08-17T19:53:18.548Z,87.77
2022-08-17T19:56:08.349Z,88.06
2022-08-17T19:59:05.876Z,88.13
2022-08-17T20:01:45.347Z,88.50
2022-08-17T20:04:26.807Z,88.72
2022-08-17T20:07:12.107Z,88.22
2022-08-17T20:09:48.024Z,88.60
2022-08-17T20:12:19.321Z,88.81
2022-08-17T20:15:03.298Z,88.59
2022-08-17T20:17:35.113Z,88.96
2022-08-17T20:20:19.973Z,88.96
2022-08-17T20:22:52.723Z,89.12
2022-08-17T20:25:58.520Z,88.80
2022-08-17T20:28:31.674Z,89.13
2022-08-17T20:31:00.927Z,89.01
2022-08-17T20:33:34.493Z,89.01
2022-08-17T20:36:11.644Z,89.12
2022-08-17T20:38:49.311Z,89.69
2022-08-17T20:41:28.208Z,89.75
2022-08-17T20:43:57.510Z,89.82
2022-08-17T20:46:36.359Z,89.83
2022-08-17T20:49:08.849Z,89.96
2022-08-17T20:52:01.489Z,90.01
2022-08-17T20:54:53.636Z,89.89
2022-08-17T20:57:32.353Z,89.96
2022-08-17T21:00:18.214Z,90.08
2022-08-17T21:02:50.390Z,90.22
2022-08-17T21:06:00.053Z,90.05
2022-08-17T21:08:45.810Z,89.92
2022-08-17T21:12:02.148Z,89.87
2022-08-17T21:15:03.809Z,89.39
2022-08-17T21:17:56.507Z,89.70
2022-08-17T21:20:37.745Z,89.74
2022-08-17T21:23:13.346Z,89.53
2022-08-17T21:26:15.643Z,89.55
2022-08-17T21:29:29.893Z,90.19
2022-08-17T21:32:05.409Z,89.79
2022-08-17T21:34:44.410Z,89.77
2022-08-17T21:37:29.411Z,90.40
2022-08-17T21:40:22.236Z,89.77
2022-08-17T21:42:53.952Z,89.90
2022-08-17T21:45:26.001Z,90.15
2022-08-17T21:48:14.378Z,90.14
2022-08-17T21:50:43.834Z,90.41
2022-08-17T21:53:22.447Z,90.62
2022-08-17T21:55:50.320Z,90.77
2022-08-17T21:58:34.400Z,90.93
2022-08-17T22:01:20.079Z,90.92
2022-08-17T22:04:17.996Z,90.95
2022-08-17T22:06:52.502Z,91.17
2022-08-17T22:09:45.228Z,90.97
2022-08-17T22:12:20.419Z,91.67
2022-08-17T22:15:06.062Z,91.75
2022-08-17T22:17:36.006Z,91.77
2022-08-17T22:20:14.208Z,92.18
2022-08-17T22:23:08.750Z,92.44
2022-08-17T22:26:01.803Z,92.29
2022-08-17T22:28:45.841Z,92.35
2022-08-17T22:31:56.326Z,92.43
2022-08-17T22:34:23.033Z,92.65
2022-08-17T22:36:51.934Z,92.37
2022-08-17T22:39:23.268Z,92.40
2022-08-17T22:42:02.339Z,92.53
2022-08-17T22:44:48.006Z,92.49
2022-08-17T22:47:14.460Z,92.33
2022-08-17T22:50:04.835Z,92.62
2022-08-17T22:53:02.687Z,92.36
2022-08-17T22:55:52.216Z,92.32
2022-08-17T22:58:40.369Z,92.63
2022-08-17T23:01:35.491Z,92.62
2022-08-17T23:04:05.746Z,92.78
2022-08-17T23:06:34.599Z,92.97
2022-08-17T23:09:05.826Z,93.05
2022-08-17T23:11:50.496Z,93.20
2022-08-17T23:14:19.805Z,92.92
2022-08-17T23:16:47.554Z,93.24
2022-08-17T23:19:16.483Z,93.26
2022-08-17T23:21:46.533Z,93.25
2022-08-17T23:24:20.999Z,93.42
2022-08-17T23:26:57.398Z,93.62
2022-08-17T23:29:24.829Z,93.99
2022-08-17T23:31:52.301Z,94.15
2022-08-17T23:34:19.034Z,94.08
2022-08-17T23:36:51.274Z,94.01
2022-08-17T23:39:27.641Z,94.17
2022-08-17T23:41:56.830Z,93.81
2022-08-17T23:44:23.659Z,94.03
2022-08-17T23:46:52.022Z,93.96
2022-08-17T23:49:21.645Z,94.21
2022-08-17T23:51:48.830Z,94.07
2022-08-17T23:54:29.883Z,94.06
2022-08-17T23:56:56.630Z,93.77
2022-08-17T23:59:27.488Z,93.95
